CDT,Max TemperatureF,Mean TemperatureF,Min TemperatureF,Max Dew PointF,MeanDew PointF,Min DewpointF,Max Humidity, Mean Humidity, Min Humidity, Max Sea Level PressureIn, Mean Sea Level PressureIn, Min Sea Level PressureIn, Max VisibilityMiles, Mean VisibilityMiles, Min VisibilityMiles, Max Wind SpeedMPH, Mean Wind SpeedMPH, Max Gust SpeedMPH,PrecipitationIn, CloudCover, Events, WindDirDegrees
2011-10-1,67,50,33,40,36,32,93,63,33,30.34,30.27,30.17,10,10,10,13,5,17,0.00,0,,141
2011-10-2,82,62,41,42,39,35,80,47,21,30.19,30.14,30.08,10,10,7,12,4,16,0.00,0,,156
2011-10-3,81,62,42,44,39,33,81,49,19,30.19,30.15,30.12,10,10,10,12,3,17,0.00,0,,146
2011-10-4,85,67,49,48,41,34,65,43,23,30.15,30.09,30.01,10,10,10,16,6,24,0.00,0,,133
2011-10-5,87,72,58,51,46,42,67,44,23,30.07,30.02,29.98,10,10,10,14,6,24,0.00,0,,143
2011-10-6,82,66,49,48,43,38,76,48,22,30.06,30.01,29.93,10,10,10,20,8,30,0.00,0,,135
2011-10-7,81,73,65,60,54,48,59,49,42,29.94,29.87,29.80,10,10,7,22,14,39,0.00,3,,159
2011-10-8,82,75,68,62,57,53,76,55,38,30.11,30.00,29.88,10,10,5,17,11,32,0.00,3,Rain,194
2011-10-9,82,70,59,63,57,50,94,69,34,30.20,30.15,30.09,10,10,5,12,6,20,0.00,3,Rain,98
2011-10-10,69,62,54,60,53,49,92,75,57,30.08,29.99,29.90,10,10,4,12,7,17,0.00,1,Rain,149
2011-10-11,74,62,49,58,52,46,94,73,36,29.90,29.84,29.77,10,9,5,13,3,20,0.00,1,,149
2011-10-12,63,58,54,57,55,52,95,87,67,29.76,29.72,29.68,10,9,4,12,5,18,0.00,6,Rain-Thunderstorm,170
2011-10-13,62,56,49,53,47,39,96,76,43,29.70,29.67,29.65,10,9,1,21,8,26,0.00,3,,288
2011-10-14,57,52,46,47,43,38,92,74,50,29.82,29.74,29.67,10,10,7,23,13,34,0.00,5,,288
2011-10-15,59,49,39,43,39,36,91,70,42,29.91,29.86,29.82,10,10,10,21,11,28,0.00,2,Rain,274
2011-10-16,57,48,39,45,37,31,93,67,37,29.90,29.87,29.84,10,10,10,28,11,33,0.00,2,,274
2011-10-17,57,46,34,37,32,29,88,62,35,29.90,29.88,29.86,10,10,10,25,12,33,0.00,0,,275
2011-10-18,49,42,34,35,32,27,81,68,47,30.08,30.00,29.90,10,10,10,17,9,25,0.00,4,,321
2011-10-19,45,40,34,35,32,28,86,71,61,30.12,30.09,30.06,10,10,10,14,9,18,0.00,6,,342
2011-10-20,54,44,34,37,32,29,93,72,38,30.05,30.00,29.95,10,10,7,17,9,22,0.00,0,,329
2011-10-21,68,46,24,40,32,23,94,66,31,30.03,29.99,29.95,10,10,4,12,3,16,0.00,0,,245
2011-10-22,60,46,33,43,35,32,96,65,39,30.13,30.07,29.97,10,10,5,8,3,,0.00,0,,312
2011-10-23,60,48,36,49,43,34,93,80,59,29.94,29.86,29.79,10,10,5,14,5,20,0.00,3,,253
2011-10-24,60,46,33,45,39,32,95,79,52,30.01,29.98,29.95,10,10,7,10,2,,0.00,2,,241
2011-10-25,57,52,44,45,38,32,84,62,49,29.98,29.88,29.83,10,10,10,24,14,31,0.00,1,,38
2011-10-26,46,41,36,41,38,34,93,86,78,30.12,30.07,30.04,10,10,7,10,4,,0.00,6,,349
2011-10-27,53,44,34,38,33,27,95,72,37,30.07,30.05,30.01,10,10,7,12,5,20,0.00,4,,281
2011-10-28,54,42,30,36,27,25,82,58,33,30.05,30.03,30.01,10,10,10,18,5,29,0.00,2,,285
2011-10-29,54,38,21,31,25,18,89,63,32,30.05,30.00,29.90,10,10,10,13,4,17,0.00,0,,176
2011-10-30,47,42,36,39,33,25,91,68,42,29.95,29.84,29.77,10,10,2,20,10,25,0.00,7,,292
2011-10-31,54,42,29,38,33,28,96,74,41,30.02,29.96,29.89,10,9,5,9,5,,0.00,1,,205